Leesburg, VA (20175)

6:17 PM EDT on August 28, 2015 (GMT -0400)
Emerald Park Estates | | Change Station
CLOSE
Current Station
Personal Weather Station
Location: Leesburg, VA
Elevation: 424 ft
Nearby Weather Stations

Elev 424 ft 39.08 °N, 77.59 °W | Updated 3 seconds ago

Clear
Clear
79.1 °F
Feels Like 80 °F
N
1.0
Wind Variable Wind from SW
Gusts 4.0 mph

Today
High -- | Low -- °F
--% Chance of Precip.
Yesterday
High -- | Low -- °F
Precip. -- in
6:35 AM 7:47 PM
Waxing Gibbous, 99% visible
Pressure 30.15 in
Visibility 10.0 miles
Clouds Clear
Heat Index 80 °F
Dew Point 62 °F
Humidity 56%
Rainfall 0.00 in
Snow Depth Not available.
UV 2 out of 12
Pollen 9.00 out of 12
Air Quality Not available.
Flu Activity Not available.
METAR KJYO 282155Z AUTO 00000KT 10SM CLR 28/15 A3015 RMK AO2
Pressure 30.15 in
Visibility 10.0 miles
Clouds Clear
Heat Index 80 °F
Dew Point 62 °F
Humidity 56%
Rainfall 0.00 in
Snow Depth Not available.
UV 2 out of 12
Pollen 9.00 out of 12
Air Quality Not available.
Flu Activity Not available.
METAR KJYO 282155Z AUTO 00000KT 10SM CLR 28/15 A3015 RMK AO2

10-Day Weather Forecast

×

Almanac

Astronomy

Aug. 28, 2015 Rise Set
Actual Time
Civil Twilight
Nautical Twilight
Astronomical Twilight
Moon
Length of Visible Light
Length of Day
Tomorrow will be .
, % of the Moon is Illuminated

Today's Extremes

State Highs State Lows

Community

WunderPhotos

Upload Photos

1,850,515 photos uploaded!

WunderBlogs® & News

Nearby

Air Quality

  Air Quality AQ Index Pollutant
Not available.

Snow Depth

Station Depth Elevation

Earthquake Activity

City Distance Mag. Time & Date
Minimum magnitude displayed is 2.5.

Coastal Water Temperatures

Place Temperature

Stations

Nearby Weather Stations

Station Location Temp. Windchill Dew Point Humidity Wind Precip. Elev Updated Type